createdAt,value
2022-09-27T06:17:24.871Z,10.01
2022-09-27T06:18:24.829Z,10.10
2022-09-27T06:19:24.811Z,10.07
2022-09-27T06:20:24.804Z,10.04
2022-09-27T06:21:24.793Z,10.09
2022-09-27T06:22:24.794Z,10.14
2022-09-27T06:23:24.784Z,10.12
2022-09-27T06:24:24.775Z,10.15
2022-09-27T06:25:24.748Z,10.18
2022-09-27T06:26:24.733Z,10.24
2022-09-27T06:27:24.737Z,10.21
2022-09-27T06:28:24.711Z,10.22
2022-09-27T06:29:24.699Z,10.22
2022-09-27T06:30:24.698Z,10.28
2022-09-27T06:31:24.695Z,10.22
2022-09-27T06:32:24.672Z,10.22
2022-09-27T06:33:24.714Z,10.36
2022-09-27T06:34:24.643Z,10.21
2022-09-27T06:35:24.638Z,10.26
2022-09-27T06:36:24.626Z,10.33
2022-09-27T06:37:24.618Z,10.34
2022-09-27T06:38:24.610Z,10.43
2022-09-27T06:39:24.612Z,10.33
2022-09-27T06:40:24.660Z,10.52
2022-09-27T06:41:24.574Z,10.47
2022-09-27T06:42:24.553Z,10.47
2022-09-27T06:43:26.007Z,10.56
2022-09-27T06:44:24.603Z,10.68
2022-09-27T06:45:24.564Z,10.43
2022-09-27T06:46:24.559Z,10.62
2022-09-27T06:47:24.514Z,10.66
2022-09-27T06:48:24.529Z,10.58
2022-09-27T06:49:24.557Z,10.62
2022-09-27T06:50:24.471Z,10.68
2022-09-27T06:51:24.454Z,10.70
2022-09-27T06:52:24.449Z,10.76
2022-09-27T06:53:24.436Z,10.83
2022-09-27T06:54:24.436Z,10.76
2022-09-27T06:55:24.414Z,10.80
2022-09-27T06:56:24.402Z,10.74
2022-09-27T06:57:24.394Z,10.83
2022-09-27T06:58:24.372Z,10.86
2022-09-27T06:59:24.383Z,10.73
2022-09-27T07:00:24.365Z,10.86
2022-09-27T07:01:24.380Z,10.81
2022-09-27T07:02:24.367Z,10.88
2022-09-27T07:03:24.323Z,10.77
2022-09-27T07:04:24.325Z,10.89
2022-09-27T07:05:24.327Z,10.95
2022-09-27T07:06:24.285Z,10.92
2022-09-27T07:07:24.285Z,10.89
2022-09-27T07:08:24.269Z,10.86
2022-09-27T07:09:24.255Z,10.86
2022-09-27T07:10:24.252Z,10.83
2022-09-27T07:11:24.234Z,10.94
2022-09-27T07:12:24.247Z,10.96
2022-09-27T07:13:24.205Z,10.88
2022-09-27T07:14:24.194Z,10.92
2022-09-27T07:15:24.201Z,10.88
2022-09-27T07:16:24.228Z,10.96
2022-09-27T07:17:24.160Z,10.96
2022-09-27T07:18:24.160Z,10.91
2022-09-27T07:19:24.138Z,10.88
2022-09-27T07:20:24.184Z,10.94
2022-09-27T07:21:24.167Z,10.98
2022-09-27T07:22:24.111Z,11.01
2022-09-27T07:23:24.101Z,11.03
2022-09-27T07:24:24.087Z,11.06
2022-09-27T07:25:24.086Z,10.99
2022-09-27T07:26:24.078Z,11.06
2022-09-27T07:27:24.047Z,11.10
2022-09-27T07:28:24.057Z,10.99
2022-09-27T07:29:24.025Z,11.09
2022-09-27T07:30:24.111Z,11.02
2022-09-27T07:31:24.024Z,11.01
2022-09-27T07:32:24.009Z,11.10
2022-09-27T07:33:23.979Z,11.07
2022-09-27T07:34:23.968Z,11.09
2022-09-27T07:35:23.971Z,11.10
2022-09-27T07:36:23.971Z,11.03
2022-09-27T07:37:23.969Z,11.01
2022-09-27T07:38:23.934Z,10.99
2022-09-27T07:39:23.911Z,10.98
2022-09-27T07:40:23.970Z,10.96
2022-09-27T07:41:23.922Z,10.96
2022-09-27T07:42:23.885Z,10.94
2022-09-27T07:43:23.872Z,11.03
2022-09-27T07:44:23.856Z,10.99
2022-09-27T07:45:23.843Z,10.92
2022-09-27T07:46:23.891Z,10.92
2022-09-27T07:47:23.832Z,10.98
2022-09-27T07:48:23.811Z,11.03
2022-09-27T07:49:23.803Z,10.98
2022-09-27T07:50:23.880Z,10.95
2022-09-27T07:51:23.784Z,10.94
2022-09-27T07:52:23.781Z,11.01
2022-09-27T07:53:23.782Z,10.96
2022-09-27T07:54:23.756Z,10.98
2022-09-27T07:55:23.731Z,10.98
2022-09-27T07:56:23.721Z,10.96
2022-09-27T07:57:23.711Z,10.98
2022-09-27T07:58:23.719Z,11.03
2022-09-27T07:59:23.688Z,11.03
2022-09-27T08:00:23.751Z,10.99
2022-09-27T08:01:23.763Z,11.07
2022-09-27T08:02:23.908Z,11.06
2022-09-27T08:03:23.658Z,11.01
2022-09-27T08:04:23.632Z,11.03
2022-09-27T08:05:23.628Z,11.16
2022-09-27T08:06:23.616Z,11.17
2022-09-27T08:07:23.598Z,11.16
2022-09-27T08:08:23.605Z,11.28
2022-09-27T08:09:23.601Z,11.25
2022-09-27T08:10:23.622Z,11.24
2022-09-27T08:11:23.556Z,11.32
2022-09-27T08:12:23.538Z,11.29
2022-09-27T08:13:23.527Z,11.31
2022-09-27T08:14:23.533Z,11.31
2022-09-27T08:15:23.504Z,11.29
2022-09-27T08:16:23.587Z,11.27
2022-09-27T08:17:23.490Z,11.36
2022-09-27T08:18:23.482Z,11.35
2022-09-27T08:19:23.600Z,11.44
2022-09-27T08:20:23.475Z,11.49
2022-09-27T08:21:23.443Z,11.52
2022-09-27T08:22:23.428Z,11.47
2022-09-27T08:23:23.414Z,11.52
2022-09-27T08:24:23.422Z,11.56
2022-09-27T08:25:23.459Z,11.57
2022-09-27T08:26:23.387Z,11.64
2022-09-27T08:27:23.366Z,11.57
2022-09-27T08:28:23.368Z,11.56
2022-09-27T08:29:23.376Z,11.56
2022-09-27T08:30:23.437Z,11.65
2022-09-27T08:31:23.415Z,11.59
2022-09-27T08:32:23.738Z,11.64
2022-09-27T08:33:23.304Z,11.49
2022-09-27T08:34:23.298Z,11.65
2022-09-27T08:35:23.319Z,11.71
2022-09-27T08:36:23.275Z,11.67
2022-09-27T08:37:23.256Z,11.77
2022-09-27T08:38:23.254Z,11.80
2022-09-27T08:39:23.233Z,11.78
2022-09-27T08:40:23.389Z,11.85
2022-09-27T08:41:23.238Z,11.75
2022-09-27T08:42:23.202Z,11.87
2022-09-27T08:43:23.191Z,11.90
2022-09-27T08:44:23.187Z,12.06
2022-09-27T08:45:23.348Z,12.11
2022-09-27T08:46:23.160Z,12.06
2022-09-27T08:47:23.152Z,12.13
2022-09-27T08:48:23.153Z,12.23
2022-09-27T08:49:23.123Z,12.27
2022-09-27T08:50:23.233Z,12.26
2022-09-27T08:51:23.099Z,12.33
2022-09-27T08:52:23.089Z,12.31
2022-09-27T08:53:23.082Z,12.34
2022-09-27T08:54:23.076Z,12.31
2022-09-27T08:55:23.070Z,12.21
2022-09-27T08:56:23.043Z,12.31
2022-09-27T08:57:23.072Z,12.37
2022-09-27T08:58:23.022Z,12.39
2022-09-27T08:59:23.035Z,12.33
2022-09-27T09:00:23.014Z,12.33
2022-09-27T09:01:28.553Z,12.45
2022-09-27T09:02:24.029Z,12.52
2022-09-27T09:03:22.963Z,12.66
2022-09-27T09:04:22.990Z,12.66
2022-09-27T09:05:22.963Z,12.75
2022-09-27T09:06:22.939Z,12.82
2022-09-27T09:07:22.923Z,13.04
2022-09-27T09:08:22.907Z,13.15
2022-09-27T09:09:22.898Z,13.32
2022-09-27T09:10:22.908Z,13.46
2022-09-27T09:11:23.021Z,13.62
2022-09-27T09:12:22.868Z,13.69
2022-09-27T09:13:22.892Z,13.81
2022-09-27T09:14:22.845Z,13.81
2022-09-27T09:15:22.827Z,14.02
2022-09-27T09:16:22.918Z,14.13
2022-09-27T09:17:22.811Z,14.38
2022-09-27T09:18:22.801Z,14.37
2022-09-27T09:19:22.796Z,14.53
2022-09-27T09:20:22.780Z,14.61
2022-09-27T09:21:22.934Z,14.60
2022-09-27T09:22:22.759Z,14.38
2022-09-27T09:23:22.773Z,14.50
2022-09-27T09:24:22.738Z,14.27
2022-09-27T09:25:22.726Z,14.31
2022-09-27T09:26:22.727Z,14.25
2022-09-27T09:27:22.696Z,14.32
2022-09-27T09:28:22.702Z,14.13
2022-09-27T09:29:22.706Z,14.01
2022-09-27T09:30:22.686Z,13.99
2022-09-27T09:31:22.693Z,13.94
2022-09-27T09:32:22.651Z,13.87
2022-09-27T09:33:22.635Z,13.89
2022-09-27T09:34:22.622Z,13.74
2022-09-27T09:35:22.617Z,13.73
2022-09-27T09:36:22.592Z,13.74
2022-09-27T09:37:22.608Z,13.69
2022-09-27T09:38:22.571Z,13.74
2022-09-27T09:39:22.561Z,13.71
2022-09-27T09:40:22.744Z,13.63
2022-09-27T09:41:22.550Z,13.77
2022-09-27T09:42:22.558Z,13.65
2022-09-27T09:43:22.522Z,13.63
2022-09-27T09:44:22.511Z,13.59
2022-09-27T09:45:22.730Z,13.62
2022-09-27T09:46:22.488Z,13.61
2022-09-27T09:47:22.488Z,13.49
2022-09-27T09:48:22.457Z,13.49
2022-09-27T09:49:22.473Z,13.47
2022-09-27T09:50:22.458Z,13.44
2022-09-27T09:51:22.423Z,13.56
2022-09-27T09:52:22.445Z,13.38
2022-09-27T09:53:22.426Z,13.46
2022-09-27T09:54:22.390Z,13.33
2022-09-27T09:55:22.385Z,13.37
2022-09-27T09:56:22.377Z,13.38
2022-09-27T09:57:22.359Z,13.25
2022-09-27T09:58:22.355Z,13.20
2022-09-27T09:59:22.335Z,13.22
2022-09-27T10:00:22.329Z,13.18
2022-09-27T10:01:22.474Z,13.12
2022-09-27T10:02:22.374Z,13.18
2022-09-27T10:03:22.322Z,12.99
2022-09-27T10:04:22.277Z,12.93
2022-09-27T10:05:22.286Z,13.03
2022-09-27T10:06:22.264Z,12.96
2022-09-27T10:07:22.254Z,12.95
2022-09-27T10:08:22.251Z,13.02
2022-09-27T10:09:22.228Z,13.07
2022-09-27T10:10:22.213Z,12.96
2022-09-27T10:11:22.200Z,13.03
2022-09-27T10:12:22.194Z,13.09
2022-09-27T10:13:22.200Z,13.15
2022-09-27T10:14:22.170Z,13.24
2022-09-27T10:15:22.165Z,13.30
2022-09-27T10:16:22.237Z,13.36
2022-09-27T10:17:22.158Z,13.44
2022-09-27T10:18:22.145Z,13.44
2022-09-27T10:19:22.111Z,13.52
2022-09-27T10:20:22.102Z,13.58
2022-09-27T10:21:22.095Z,13.74
2022-09-27T10:22:22.083Z,13.80
2022-09-27T10:23:22.091Z,13.81
2022-09-27T10:24:22.239Z,13.88
2022-09-27T10:25:22.043Z,13.87
2022-09-27T10:26:22.051Z,13.87
2022-09-27T10:27:22.020Z,13.80
2022-09-27T10:28:22.010Z,13.77
2022-09-27T10:29:22.043Z,13.69
2022-09-27T10:30:21.984Z,13.69
2022-09-27T10:31:22.081Z,13.69
2022-09-27T10:32:21.967Z,13.69
2022-09-27T10:33:22.038Z,13.58
2022-09-27T10:34:21.955Z,13.52
2022-09-27T10:35:23.872Z,13.52
2022-09-27T10:36:21.925Z,13.59
2022-09-27T10:37:21.913Z,13.55
2022-09-27T10:38:21.894Z,13.49
2022-09-27T10:39:21.904Z,13.55
2022-09-27T10:40:21.958Z,13.51
2022-09-27T10:41:21.871Z,13.41
2022-09-27T10:42:21.850Z,13.47
2022-09-27T10:43:23.527Z,13.44
2022-09-27T10:44:21.855Z,13.32
2022-09-27T10:45:21.888Z,13.33
2022-09-27T10:46:21.824Z,13.36
2022-09-27T10:47:21.796Z,13.32
2022-09-27T10:48:21.785Z,13.41
2022-09-27T10:49:21.831Z,13.40
2022-09-27T10:50:39.187Z,13.58
2022-09-27T10:51:22.755Z,13.71
2022-09-27T10:52:21.746Z,13.87
2022-09-27T10:53:21.737Z,14.02
2022-09-27T10:54:21.731Z,14.20
2022-09-27T10:55:21.714Z,14.25
2022-09-27T10:56:21.691Z,14.29
2022-09-27T10:57:21.689Z,14.39
2022-09-27T10:58:21.693Z,14.39
2022-09-27T10:59:22.097Z,14.38
2022-09-27T11:00:21.654Z,14.38
2022-09-27T11:01:21.680Z,14.42
2022-09-27T11:02:21.626Z,14.31
2022-09-27T11:03:21.614Z,14.28
2022-09-27T11:04:21.657Z,14.27
2022-09-27T11:05:21.626Z,14.19
2022-09-27T11:06:21.591Z,14.24
2022-09-27T11:07:21.587Z,13.99
2022-09-27T11:08:21.571Z,13.95
2022-09-27T11:09:21.546Z,13.87
2022-09-27T11:10:21.558Z,13.83
2022-09-27T11:11:21.548Z,13.80
2022-09-27T11:12:21.529Z,13.79
2022-09-27T11:13:21.499Z,13.73
2022-09-27T11:14:21.498Z,13.62
2022-09-27T11:15:21.492Z,13.67
2022-09-27T11:16:21.514Z,13.58
2022-09-27T11:17:21.459Z,13.63
2022-09-27T11:18:21.449Z,13.49
2022-09-27T11:19:21.440Z,13.49
2022-09-27T11:20:21.443Z,13.56
2022-09-27T11:21:21.428Z,13.47
2022-09-27T11:22:21.397Z,13.46
2022-09-27T11:23:21.399Z,13.54
2022-09-27T11:24:21.381Z,13.51
2022-09-27T11:25:21.376Z,13.74
2022-09-27T11:26:21.359Z,13.70
2022-09-27T11:27:21.344Z,13.61
2022-09-27T11:28:21.334Z,13.76
2022-09-27T11:29:21.339Z,13.73
2022-09-27T11:30:21.326Z,13.73
2022-09-27T11:31:21.336Z,13.91
2022-09-27T11:32:21.292Z,13.94
2022-09-27T11:33:21.283Z,13.88
2022-09-27T11:34:21.263Z,13.91
2022-09-27T11:35:21.252Z,13.99
2022-09-27T11:36:21.349Z,13.91
2022-09-27T11:37:21.258Z,14.01
2022-09-27T11:38:48.001Z,14.10
2022-09-27T11:39:22.215Z,14.19
2022-09-27T11:40:21.231Z,14.14
2022-09-27T11:41:21.191Z,14.06
2022-09-27T11:42:21.193Z,14.21
2022-09-27T11:43:21.193Z,14.19
2022-09-27T11:44:21.157Z,14.21
2022-09-27T11:46:27.576Z,14.25
2022-09-27T11:47:22.272Z,14.24
2022-09-27T11:48:21.111Z,14.29
2022-09-27T11:49:21.103Z,14.24
2022-09-27T11:50:21.086Z,14.24
2022-09-27T11:51:21.078Z,14.17
2022-09-27T11:52:21.099Z,14.20
2022-09-27T11:53:21.077Z,14.29
2022-09-27T11:54:21.051Z,14.28
2022-09-27T11:55:21.025Z,14.43
2022-09-27T11:56:21.041Z,14.42
2022-09-27T11:57:21.030Z,14.39
2022-09-27T11:58:20.999Z,14.38
2022-09-27T11:59:24.568Z,14.52
2022-09-27T12:00:21.022Z,14.39
2022-09-27T12:01:20.964Z,14.34
2022-09-27T12:02:21.046Z,14.32
2022-09-27T12:03:20.951Z,14.28
2022-09-27T12:04:20.923Z,14.34
2022-09-27T12:05:20.918Z,14.19
2022-09-27T12:06:20.901Z,14.31
2022-09-27T12:07:20.914Z,14.28
2022-09-27T12:08:20.895Z,14.24
2022-09-27T12:09:20.896Z,14.31
2022-09-27T12:10:20.859Z,14.35
2022-09-27T12:11:20.858Z,14.43
2022-09-27T12:12:20.838Z,14.42
2022-09-27T12:13:20.833Z,14.52
2022-09-27T12:14:23.568Z,14.54
2022-09-27T12:15:21.805Z,14.53
2022-09-27T12:16:20.864Z,14.61
2022-09-27T12:17:20.789Z,14.61
2022-09-27T12:18:20.770Z,14.57
2022-09-27T12:19:20.783Z,14.46
2022-09-27T12:20:20.753Z,14.39
2022-09-27T12:21:20.759Z,14.43
2022-09-27T12:22:40.161Z,14.34
2022-09-27T12:23:21.712Z,14.27
2022-09-27T12:24:20.722Z,14.07
2022-09-27T12:25:21.270Z,14.01
2022-09-27T12:26:20.683Z,13.98
2022-09-27T12:27:20.706Z,13.84
2022-09-27T12:28:24.592Z,13.83
2022-09-27T12:29:21.670Z,13.76
2022-09-27T12:30:20.637Z,13.74
2022-09-27T12:31:29.293Z,13.52
2022-09-27T12:32:21.635Z,13.51
2022-09-27T12:33:20.610Z,13.20
2022-09-27T12:34:20.641Z,13.07
2022-09-27T12:35:20.593Z,12.87
2022-09-27T12:36:20.575Z,12.69
2022-09-27T12:37:20.563Z,12.85
2022-09-27T12:38:20.552Z,12.79
2022-09-27T12:39:20.572Z,12.74
2022-09-27T12:40:20.638Z,12.69
2022-09-27T12:41:20.536Z,12.84
2022-09-27T12:42:20.502Z,12.88
2022-09-27T12:43:20.508Z,12.77
2022-09-27T12:44:20.484Z,12.79
2022-09-27T12:45:20.481Z,12.79
2022-09-27T12:46:20.546Z,12.81
2022-09-27T12:47:20.450Z,12.82
2022-09-27T12:48:20.438Z,12.89
2022-09-27T12:49:20.430Z,12.81
2022-09-27T12:50:20.426Z,12.82
2022-09-27T12:51:20.410Z,12.82
2022-09-27T12:52:20.386Z,12.81
2022-09-27T12:53:20.393Z,12.92
2022-09-27T12:54:20.363Z,12.97
2022-09-27T12:55:20.371Z,13.04
2022-09-27T12:56:20.340Z,13.14
2022-09-27T12:57:20.360Z,13.20
2022-09-27T12:58:20.319Z,13.22
2022-09-27T12:59:20.309Z,13.29
2022-09-27T13:00:20.296Z,13.41
2022-09-27T13:01:20.373Z,13.52
2022-09-27T13:02:20.309Z,13.47
2022-09-27T13:03:25.073Z,13.47
2022-09-27T13:04:21.261Z,13.47
2022-09-27T13:05:20.265Z,13.47
2022-09-27T13:06:20.244Z,13.41
2022-09-27T13:07:20.228Z,13.47
2022-09-27T13:08:20.313Z,13.37
2022-09-27T13:09:20.205Z,13.25
2022-09-27T13:10:20.188Z,13.17
2022-09-27T13:11:20.198Z,13.07
2022-09-27T13:12:20.162Z,13.03
2022-09-27T13:13:20.181Z,12.97
2022-09-27T13:14:20.140Z,12.92
2022-09-27T13:15:20.136Z,12.82
2022-09-27T13:16:20.221Z,12.75
2022-09-27T13:17:20.120Z,12.71
2022-09-27T13:18:20.097Z,12.57
2022-09-27T13:19:22.857Z,12.45
2022-09-27T13:20:21.076Z,12.48
2022-09-27T13:21:20.061Z,12.42
2022-09-27T13:22:20.072Z,12.33
2022-09-27T13:23:20.080Z,12.29
2022-09-27T13:24:20.037Z,12.19
2022-09-27T13:25:20.016Z,12.16
2022-09-27T13:26:20.017Z,12.21
2022-09-27T13:27:20.025Z,12.19
2022-09-27T13:28:19.991Z,12.15
2022-09-27T13:29:19.994Z,12.19
2022-09-27T13:30:19.971Z,12.19
2022-09-27T13:31:20.030Z,12.24
2022-09-27T13:32:19.946Z,12.30
2022-09-27T13:33:19.948Z,12.34
2022-09-27T13:34:19.936Z,12.41
2022-09-27T13:35:19.915Z,12.30
2022-09-27T13:36:19.899Z,12.30
2022-09-27T13:37:19.891Z,12.23
2022-09-27T13:38:19.886Z,12.27
2022-09-27T13:39:19.872Z,12.21
2022-09-27T13:40:19.865Z,12.09
2022-09-27T13:41:19.853Z,12.09
2022-09-27T13:42:19.826Z,12.04
2022-09-27T13:43:19.838Z,11.94
2022-09-27T13:44:19.804Z,11.99
2022-09-27T13:45:19.817Z,11.97
2022-09-27T13:46:19.897Z,11.86
2022-09-27T13:47:19.777Z,11.86
2022-09-27T13:48:19.771Z,11.83
2022-09-27T13:49:19.746Z,11.96
2022-09-27T13:50:19.747Z,11.85
2022-09-27T13:51:19.732Z,11.80
2022-09-27T13:52:19.715Z,11.74
2022-09-27T13:53:19.724Z,11.89
2022-09-27T13:54:19.693Z,11.75
2022-09-27T13:55:19.686Z,11.93
2022-09-27T13:56:19.673Z,11.89
2022-09-27T13:57:19.663Z,11.89
2022-09-27T13:58:19.692Z,11.83
2022-09-27T13:59:19.637Z,11.85
2022-09-27T14:00:19.626Z,11.93
2022-09-27T14:01:19.673Z,12.16
2022-09-27T14:02:19.616Z,12.15
2022-09-27T14:03:19.591Z,12.09
2022-09-27T14:04:19.595Z,12.13
2022-09-27T14:05:19.577Z,12.19
2022-09-27T14:06:19.555Z,12.27
2022-09-27T14:07:19.555Z,12.30
2022-09-27T14:08:19.544Z,12.33
2022-09-27T14:09:19.534Z,12.42
2022-09-27T14:10:19.519Z,12.39
2022-09-27T14:11:19.507Z,12.56
2022-09-27T14:12:19.497Z,12.49
2022-09-27T14:13:19.489Z,12.60
2022-09-27T14:14:19.486Z,12.57
2022-09-27T14:15:19.454Z,12.64
2022-09-27T14:16:19.481Z,12.52
2022-09-27T14:17:19.458Z,12.63
2022-09-27T14:18:19.432Z,12.64
2022-09-27T14:19:19.428Z,12.79
2022-09-27T14:20:19.401Z,12.71
2022-09-27T14:21:19.393Z,12.75
2022-09-27T14:22:19.379Z,12.75
2022-09-27T14:23:19.365Z,12.87
2022-09-27T14:24:19.381Z,12.84
2022-09-27T14:25:19.350Z,12.89
2022-09-27T14:26:19.331Z,12.66
2022-09-27T14:27:19.327Z,12.77
2022-09-27T14:28:19.309Z,12.82
2022-09-27T14:29:19.300Z,12.79
2022-09-27T14:30:19.309Z,12.87
2022-09-27T14:31:19.320Z,12.77
2022-09-27T14:32:19.265Z,12.77
2022-09-27T14:33:22.688Z,12.85
2022-09-27T14:34:19.250Z,12.82
2022-09-27T14:35:19.247Z,12.77
2022-09-27T14:36:23.042Z,12.75
2022-09-27T14:37:19.229Z,12.57
2022-09-27T14:38:38.534Z,12.71
2022-09-27T14:39:20.190Z,12.64
2022-09-27T14:40:19.238Z,12.60
2022-09-27T14:41:19.173Z,12.57
2022-09-27T14:42:19.161Z,12.56
2022-09-27T14:43:19.152Z,12.49
2022-09-27T14:44:19.156Z,12.51
2022-09-27T14:45:19.123Z,12.56
2022-09-27T14:46:19.183Z,12.51
2022-09-27T14:47:19.113Z,12.54
2022-09-27T14:48:19.100Z,12.64
2022-09-27T14:49:19.116Z,12.45
2022-09-27T14:50:19.109Z,12.60
2022-09-27T14:51:19.066Z,12.59
2022-09-27T14:52:19.045Z,12.66
2022-09-27T14:53:19.043Z,12.63
2022-09-27T14:54:19.019Z,12.67
2022-09-27T14:55:19.010Z,12.69
2022-09-27T14:56:19.015Z,12.64
2022-09-27T14:57:18.982Z,12.74
2022-09-27T14:58:42.881Z,12.74
2022-09-27T14:59:19.963Z,12.67
2022-09-27T15:00:18.951Z,12.74
2022-09-27T15:01:18.953Z,12.77
2022-09-27T15:02:18.964Z,12.78
2022-09-27T15:03:19.018Z,12.78
2022-09-27T15:04:19.090Z,12.74
2022-09-27T15:05:18.924Z,12.64
2022-09-27T15:06:18.905Z,12.88
2022-09-27T15:07:18.879Z,12.88
2022-09-27T15:08:18.866Z,12.81
2022-09-27T15:09:18.848Z,12.75
2022-09-27T15:10:18.852Z,12.81
2022-09-27T15:11:18.838Z,12.74
2022-09-27T15:12:18.814Z,12.82
2022-09-27T15:13:18.816Z,12.81
2022-09-27T15:14:18.852Z,12.74
2022-09-27T15:15:18.788Z,12.75
2022-09-27T15:16:18.919Z,12.67
2022-09-27T15:17:18.782Z,12.66
2022-09-27T15:18:18.756Z,12.67
2022-09-27T15:19:18.743Z,12.63
2022-09-27T15:20:18.731Z,12.60
2022-09-27T15:21:18.736Z,12.56
2022-09-27T15:22:18.727Z,12.52
2022-09-27T15:23:18.692Z,12.45
2022-09-27T15:24:18.689Z,12.54
2022-09-27T15:25:19.685Z,12.51
2022-09-27T15:26:18.661Z,12.52
2022-09-27T15:27:18.682Z,12.56
2022-09-27T15:28:18.649Z,12.52
2022-09-27T15:29:18.627Z,12.57
2022-09-27T15:30:18.620Z,12.49
2022-09-27T15:31:18.625Z,12.42
2022-09-27T15:32:18.601Z,12.51
2022-09-27T15:33:18.595Z,12.38
2022-09-27T15:34:18.574Z,12.27
2022-09-27T15:35:18.563Z,12.24
2022-09-27T15:36:18.556Z,12.24
2022-09-27T15:37:18.556Z,12.20
2022-09-27T15:38:18.549Z,12.15
2022-09-27T15:39:18.697Z,12.11
2022-09-27T15:40:18.569Z,12.02
2022-09-27T15:41:19.290Z,12.01
2022-09-27T15:42:18.486Z,11.96
2022-09-27T15:43:18.494Z,11.90
2022-09-27T15:44:18.468Z,11.80
2022-09-27T15:45:18.445Z,11.90
2022-09-27T15:46:18.476Z,11.86
2022-09-27T15:47:18.430Z,11.87
2022-09-27T15:48:18.434Z,11.87
2022-09-27T15:49:18.696Z,11.87
2022-09-27T15:50:18.404Z,11.77
2022-09-27T15:51:18.386Z,11.80
2022-09-27T15:52:18.376Z,11.83
2022-09-27T15:53:18.432Z,11.65
2022-09-27T15:54:18.379Z,11.71
2022-09-27T15:55:18.344Z,11.65
2022-09-27T15:56:18.336Z,11.78
2022-09-27T15:57:18.343Z,11.67
2022-09-27T15:58:18.351Z,11.70
2022-09-27T15:59:18.306Z,11.68
2022-09-27T16:00:19.173Z,11.56
2022-09-27T16:01:18.278Z,11.64
2022-09-27T16:02:18.296Z,11.72
2022-09-27T16:03:18.253Z,11.72
2022-09-27T16:04:18.246Z,11.62
2022-09-27T16:05:18.225Z,11.57
2022-09-27T16:06:18.220Z,11.56
2022-09-27T16:07:18.202Z,11.57
2022-09-27T16:08:18.189Z,11.57
2022-09-27T16:09:18.207Z,11.62
2022-09-27T16:10:18.167Z,11.56
2022-09-27T16:11:18.171Z,11.67
2022-09-27T16:12:18.148Z,11.64
2022-09-27T16:13:18.131Z,11.56
2022-09-27T16:14:18.138Z,11.53
2022-09-27T16:15:18.130Z,11.47
2022-09-27T16:16:18.247Z,11.54
2022-09-27T16:17:18.099Z,11.46
2022-09-27T16:18:18.083Z,11.56
2022-09-27T16:19:18.102Z,11.50
2022-09-27T16:20:18.079Z,11.59
2022-09-27T16:21:18.061Z,11.46
2022-09-27T16:22:18.031Z,11.50
2022-09-27T16:23:18.020Z,11.56
2022-09-27T16:24:18.016Z,11.52
2022-09-27T16:25:18.018Z,11.54
2022-09-27T16:26:18.014Z,11.50
2022-09-27T16:27:17.975Z,11.49
2022-09-27T16:28:17.971Z,11.50
2022-09-27T16:29:18.150Z,11.44
2022-09-27T16:30:17.955Z,11.50
2022-09-27T16:31:18.023Z,11.47
2022-09-27T16:32:17.922Z,11.47
2022-09-27T16:33:17.908Z,11.52
2022-09-27T16:34:17.965Z,11.53
2022-09-27T16:35:17.888Z,11.50
2022-09-27T16:36:17.914Z,11.47
2022-09-27T16:37:17.870Z,11.47
2022-09-27T16:38:17.856Z,11.41
2022-09-27T16:39:17.976Z,11.52
2022-09-27T16:40:17.953Z,11.38
2022-09-27T16:41:17.868Z,11.31
2022-09-27T16:42:17.812Z,11.47
2022-09-27T16:43:17.801Z,11.36
2022-09-27T16:44:18.046Z,11.34
2022-09-27T16:45:19.419Z,11.44
2022-09-27T16:46:17.809Z,11.39
2022-09-27T16:47:17.772Z,11.39
2022-09-27T16:48:17.742Z,11.44
2022-09-27T16:49:17.738Z,11.38
2022-09-27T16:50:17.722Z,11.29
2022-09-27T16:51:21.096Z,11.31
2022-09-27T16:52:17.718Z,11.46
2022-09-27T16:53:17.686Z,11.31
2022-09-27T16:54:18.008Z,11.25
2022-09-27T16:55:17.660Z,11.36
2022-09-27T16:56:17.649Z,11.28
2022-09-27T16:57:17.698Z,11.35
2022-09-27T16:58:17.649Z,11.31
2022-09-27T16:59:17.615Z,11.25
2022-09-27T17:00:17.604Z,11.32
2022-09-27T17:01:17.676Z,11.32
2022-09-27T17:02:17.635Z,11.27
2022-09-27T17:03:17.589Z,11.16
2022-09-27T17:04:17.716Z,11.29
2022-09-27T17:05:17.553Z,11.07
2022-09-27T17:06:17.545Z,11.17
2022-09-27T17:07:17.524Z,11.10
2022-09-27T17:08:17.535Z,11.03
2022-09-27T17:09:17.510Z,10.95
2022-09-27T17:10:17.501Z,10.96
2022-09-27T17:11:17.485Z,10.98
2022-09-27T17:12:17.471Z,10.94
2022-09-27T17:13:17.742Z,10.99
2022-09-27T17:14:17.604Z,10.89
2022-09-27T17:15:17.448Z,10.86
2022-09-27T17:16:17.463Z,10.86
2022-09-27T17:17:17.414Z,10.77
2022-09-27T17:18:17.411Z,10.70
2022-09-27T17:19:17.417Z,10.76
2022-09-27T17:20:17.379Z,10.76
2022-09-27T17:21:17.375Z,10.73
2022-09-27T17:22:17.357Z,10.65
2022-09-27T17:23:17.349Z,10.70
2022-09-27T17:24:17.546Z,10.65
2022-09-27T17:25:17.323Z,10.66
2022-09-27T17:26:17.322Z,10.63
2022-09-27T17:27:17.300Z,10.56
2022-09-27T17:28:17.313Z,10.63
2022-09-27T17:29:17.378Z,10.55
2022-09-27T17:30:17.272Z,10.59
2022-09-27T17:31:17.335Z,10.53
2022-09-27T17:32:17.257Z,10.51
2022-09-27T17:33:17.259Z,10.60
2022-09-27T17:34:17.357Z,10.52
2022-09-27T17:35:17.210Z,10.51
2022-09-27T17:36:17.207Z,10.55
2022-09-27T17:37:17.193Z,10.55
2022-09-27T17:38:17.184Z,10.46
2022-09-27T17:39:17.179Z,10.37
2022-09-27T17:40:17.253Z,10.39
2022-09-27T17:41:17.148Z,10.44
2022-09-27T17:42:17.136Z,10.36
2022-09-27T17:43:17.131Z,10.34
2022-09-27T17:44:17.250Z,10.39
2022-09-27T17:45:17.131Z,10.32
2022-09-27T17:46:17.126Z,10.40
2022-09-27T17:47:17.083Z,10.36
2022-09-27T17:48:17.080Z,10.43
2022-09-27T17:49:17.057Z,10.40
2022-09-27T17:50:17.071Z,10.40
2022-09-27T17:51:17.047Z,10.39
2022-09-27T17:52:17.016Z,10.42
2022-09-27T17:53:17.028Z,10.43
2022-09-27T17:54:17.225Z,10.43
2022-09-27T17:55:17.006Z,10.42
2022-09-27T17:56:16.981Z,10.46
2022-09-27T17:57:16.961Z,10.47
2022-09-27T17:58:16.950Z,10.51
2022-09-27T17:59:16.945Z,10.44
2022-09-27T18:00:16.950Z,10.52
2022-09-27T18:01:16.970Z,10.55
2022-09-27T18:02:17.054Z,10.59
2022-09-27T18:03:16.902Z,10.44
2022-09-27T18:04:17.070Z,10.53
2022-09-27T18:05:16.881Z,10.56
2022-09-27T18:06:16.875Z,10.46
2022-09-27T18:07:16.854Z,10.56
2022-09-27T18:08:16.846Z,10.63
2022-09-27T18:09:16.827Z,10.52
2022-09-27T18:10:16.824Z,10.56
2022-09-27T18:11:16.807Z,10.56
2022-09-27T18:12:16.801Z,10.51
2022-09-27T18:13:16.787Z,10.47
2022-09-27T18:14:16.843Z,10.51
2022-09-27T18:15:16.757Z,10.59
2022-09-27T18:16:16.795Z,10.53
2022-09-27T18:17:16.774Z,10.58
2022-09-27T18:18:16.731Z,10.60
2022-09-27T18:19:16.715Z,10.62
2022-09-27T18:20:16.709Z,10.58
2022-09-27T18:21:16.695Z,10.63
2022-09-27T18:22:16.695Z,10.59
2022-09-27T18:23:16.681Z,10.65
2022-09-27T18:24:16.790Z,10.66
2022-09-27T18:25:16.651Z,10.70
2022-09-27T18:26:16.640Z,10.62
2022-09-27T18:27:16.622Z,10.63
2022-09-27T18:28:16.643Z,10.65
2022-09-27T18:29:16.607Z,10.60
2022-09-27T18:30:16.597Z,10.71
2022-09-27T18:31:16.642Z,10.46
2022-09-27T18:32:16.565Z,10.59
2022-09-27T18:33:16.610Z,10.58
2022-09-27T18:34:16.647Z,10.46
2022-09-27T18:35:16.537Z,10.59
2022-09-27T18:36:16.529Z,10.53
2022-09-27T18:37:16.510Z,10.58
2022-09-27T18:38:16.517Z,10.55
2022-09-27T18:39:16.508Z,10.65
2022-09-27T18:40:24.218Z,10.59
2022-09-27T18:41:17.567Z,10.65
2022-09-27T18:42:16.458Z,10.58
2022-09-27T18:43:16.448Z,10.59
2022-09-27T18:44:16.592Z,10.46
2022-09-27T18:45:16.438Z,10.43
2022-09-27T18:46:35.028Z,10.43
2022-09-27T18:47:17.539Z,10.46
2022-09-27T18:48:16.384Z,10.33
2022-09-27T18:49:16.398Z,10.44
2022-09-27T18:50:16.375Z,10.39
2022-09-27T18:51:16.371Z,10.33
2022-09-27T18:52:16.347Z,10.36
2022-09-27T18:53:16.337Z,10.32
2022-09-27T18:54:16.426Z,10.25
2022-09-27T18:55:16.341Z,10.22
2022-09-27T18:56:16.303Z,10.34
2022-09-27T18:57:16.288Z,10.25
2022-09-27T18:58:16.273Z,10.28
2022-09-27T18:59:16.375Z,10.19
2022-09-27T19:00:16.264Z,10.26
2022-09-27T19:01:16.385Z,10.12
2022-09-27T19:02:16.330Z,10.22
2022-09-27T19:03:16.219Z,10.25
2022-09-27T19:04:19.199Z,10.22
2022-09-27T19:05:17.241Z,10.12
2022-09-27T19:06:16.191Z,10.26
2022-09-27T19:07:16.198Z,10.24
2022-09-27T19:08:16.160Z,10.25
2022-09-27T19:09:16.446Z,10.28
2022-09-27T19:10:16.144Z,10.18